createdAt,value
2023-03-05T00:00:54.734Z,60.42
2023-03-05T00:03:21.227Z,60.68
2023-03-05T00:05:47.782Z,60.51
2023-03-05T00:08:14.366Z,60.21
2023-03-05T00:10:40.811Z,60.15
2023-03-05T00:13:07.864Z,60.04
2023-03-05T00:15:34.390Z,59.93
2023-03-05T00:18:00.948Z,59.86
2023-03-05T00:20:27.457Z,60.01
2023-03-05T00:22:53.984Z,60.33
2023-03-05T00:25:20.522Z,60.07
2023-03-05T00:27:46.989Z,60.15
2023-03-05T00:30:13.729Z,60.39
2023-03-05T00:32:40.301Z,60.26
2023-03-05T00:35:07.316Z,60.04
2023-03-05T00:37:33.946Z,60.26
2023-03-05T00:40:00.465Z,60.47
2023-03-05T00:42:27.028Z,60.37
2023-03-05T00:44:53.496Z,60.07
2023-03-05T00:47:20.048Z,60.14
2023-03-05T00:49:46.599Z,60.44
2023-03-05T00:52:13.051Z,60.33
2023-03-05T00:54:39.653Z,60.50
2023-03-05T00:57:06.251Z,60.30
2023-03-05T00:59:32.770Z,60.26
2023-03-05T01:01:59.564Z,60.21
2023-03-05T01:04:26.173Z,60.31
2023-03-05T01:06:52.675Z,59.97
2023-03-05T01:09:19.272Z,59.92
2023-03-05T01:11:45.945Z,59.75
2023-03-05T01:14:12.407Z,60.16
2023-03-05T01:16:38.933Z,59.99
2023-03-05T01:19:05.644Z,60.07
2023-03-05T01:21:32.357Z,60.16
2023-03-05T01:23:58.904Z,60.29
2023-03-05T01:26:25.588Z,59.97
2023-03-05T01:28:52.099Z,60.44
2023-03-05T01:31:18.758Z,60.47
2023-03-05T01:33:45.457Z,60.73
2023-03-05T01:36:14.899Z,60.51
2023-03-05T01:38:42.190Z,60.80
2023-03-05T01:41:09.367Z,61.08
2023-03-05T01:43:36.193Z,61.21
2023-03-05T01:46:11.671Z,61.17
2023-03-05T01:48:38.933Z,60.62
2023-03-05T01:51:05.441Z,60.89
2023-03-05T01:53:32.249Z,61.10
2023-03-05T01:55:58.794Z,60.90
2023-03-05T01:58:25.496Z,60.98
2023-03-05T02:00:53.389Z,61.23
2023-03-05T02:03:22.212Z,61.16
2023-03-05T02:05:48.760Z,61.31
2023-03-05T02:08:18.221Z,61.12
2023-03-05T02:10:44.775Z,61.28
2023-03-05T02:13:17.328Z,60.97
2023-03-05T02:15:44.310Z,61.16
2023-03-05T02:18:10.825Z,60.90
2023-03-05T02:20:45.401Z,61.23
2023-03-05T02:23:11.920Z,61.19
2023-03-05T02:25:38.437Z,61.10
2023-03-05T02:28:17.138Z,61.18
2023-03-05T02:30:43.768Z,61.35
2023-03-05T02:33:10.240Z,61.34
2023-03-05T02:35:37.148Z,61.44
2023-03-05T02:38:03.712Z,61.52
2023-03-05T02:40:30.186Z,61.69
2023-03-05T02:42:56.701Z,61.69
2023-03-05T02:45:23.322Z,61.97
2023-03-05T02:47:50.054Z,61.97
2023-03-05T02:50:16.841Z,61.79
2023-03-05T02:52:43.363Z,62.31
2023-03-05T02:55:13.882Z,62.45
2023-03-05T02:57:41.077Z,62.23
2023-03-05T03:00:08.188Z,61.83
2023-03-05T03:02:34.842Z,62.06
2023-03-05T03:05:01.360Z,62.55
2023-03-05T03:07:27.941Z,62.41
2023-03-05T03:09:54.423Z,62.74
2023-03-05T03:12:20.939Z,62.63
2023-03-05T03:14:47.551Z,62.63
2023-03-05T03:17:15.828Z,62.92
2023-03-05T03:19:43.102Z,62.69
2023-03-05T03:22:10.912Z,62.68
2023-03-05T03:24:38.717Z,62.67
2023-03-05T03:27:05.494Z,62.79
2023-03-05T03:29:31.982Z,63.03
2023-03-05T03:31:58.822Z,63.25
2023-03-05T03:34:25.687Z,63.27
2023-03-05T03:36:55.006Z,63.14
2023-03-05T03:39:22.096Z,62.74
2023-03-05T03:41:49.896Z,62.34
2023-03-05T03:44:18.075Z,62.48
2023-03-05T03:46:46.293Z,62.24
2023-03-05T03:49:17.781Z,62.25
2023-03-05T03:51:44.247Z,62.45
2023-03-05T03:54:10.887Z,62.40
2023-03-05T03:56:37.338Z,62.57
2023-03-05T03:59:03.871Z,62.59
2023-03-05T04:01:30.535Z,62.55
2023-03-05T04:03:57.134Z,62.60
2023-03-05T04:06:25.656Z,62.82
2023-03-05T04:08:52.471Z,62.66
2023-03-05T04:11:19.656Z,62.74
2023-03-05T04:13:46.965Z,63.00
2023-03-05T04:16:13.869Z,62.81
2023-03-05T04:18:40.457Z,63.30
2023-03-05T04:21:06.941Z,63.17
2023-03-05T04:23:33.874Z,63.41
2023-03-05T04:26:00.373Z,63.27
2023-03-05T04:28:27.193Z,63.67
2023-03-05T04:30:56.630Z,63.63
2023-03-05T04:33:23.247Z,63.35
2023-03-05T04:35:50.264Z,63.64
2023-03-05T04:38:16.752Z,63.77
2023-03-05T04:40:44.251Z,63.58
2023-03-05T04:43:10.720Z,64.06
2023-03-05T04:45:39.854Z,64.07
2023-03-05T04:48:06.414Z,63.94
2023-03-05T04:50:32.936Z,64.09
2023-03-05T04:53:00.892Z,64.03
2023-03-05T04:55:27.402Z,64.03
2023-03-05T04:57:53.940Z,64.04
2023-03-05T05:00:20.444Z,63.76
2023-03-05T05:02:48.140Z,63.89
2023-03-05T05:05:16.971Z,64.22
2023-03-05T05:07:43.468Z,63.79
2023-03-05T05:10:10.597Z,63.77
2023-03-05T05:12:37.063Z,64.01
2023-03-05T05:15:04.621Z,63.98
2023-03-05T05:17:32.979Z,63.98
2023-03-05T05:20:02.162Z,64.06
2023-03-05T05:22:29.058Z,64.06
2023-03-05T05:24:55.917Z,64.11
2023-03-05T05:27:22.692Z,63.96
2023-03-05T05:29:52.995Z,64.45
2023-03-05T05:32:20.473Z,64.16
2023-03-05T05:34:47.029Z,64.09
2023-03-05T05:37:13.493Z,64.46
2023-03-05T05:39:40.028Z,64.43
2023-03-05T05:42:06.732Z,64.77
2023-03-05T05:44:34.894Z,64.69
2023-03-05T05:47:01.798Z,64.62
2023-03-05T05:49:28.385Z,64.69
2023-03-05T05:51:54.999Z,64.59
2023-03-05T05:54:21.450Z,64.76
2023-03-05T05:56:50.840Z,64.85
2023-03-05T05:59:17.319Z,65.14
2023-03-05T06:01:43.793Z,65.30
2023-03-05T06:04:10.320Z,64.82
2023-03-05T06:06:36.906Z,65.02
2023-03-05T06:09:04.025Z,64.97
2023-03-05T06:11:30.887Z,65.33
2023-03-05T06:13:57.438Z,65.55
2023-03-05T06:16:24.726Z,65.32
2023-03-05T06:18:52.036Z,65.36
2023-03-05T06:21:19.160Z,65.56
2023-03-05T06:23:46.494Z,65.75
2023-03-05T06:26:14.436Z,65.31
2023-03-05T06:28:41.231Z,65.54
2023-03-05T06:31:09.742Z,65.69
2023-03-05T06:33:36.655Z,65.35
2023-03-05T06:36:06.726Z,65.09
2023-03-05T06:38:33.651Z,65.27
2023-03-05T06:41:00.840Z,65.33
2023-03-05T06:43:27.555Z,65.12
2023-03-05T06:46:08.440Z,65.20
2023-03-05T06:48:35.029Z,65.22
2023-03-05T06:51:01.554Z,65.17
2023-03-05T06:53:28.298Z,64.98
2023-03-05T06:55:54.888Z,64.77
2023-03-05T06:58:21.572Z,64.54
2023-03-05T07:00:48.131Z,64.99
2023-03-05T07:03:14.760Z,65.04
2023-03-05T07:05:42.252Z,64.84
2023-03-05T07:08:08.819Z,64.93
2023-03-05T07:10:42.026Z,65.19
2023-03-05T07:13:08.790Z,65.11
2023-03-05T07:15:37.736Z,64.62
2023-03-05T07:18:04.268Z,64.85
2023-03-05T07:20:30.780Z,65.01
2023-03-05T07:22:57.263Z,64.93
2023-03-05T07:25:24.558Z,64.99
2023-03-05T07:27:51.542Z,64.73
2023-03-05T07:30:18.278Z,65.02
2023-03-05T07:32:44.831Z,65.06
2023-03-05T07:35:11.318Z,64.99
2023-03-05T07:37:37.868Z,64.93
2023-03-05T07:40:04.829Z,65.06
2023-03-05T07:42:31.408Z,64.75
2023-03-05T07:45:10.274Z,64.85
2023-03-05T07:47:37.063Z,64.17
2023-03-05T07:50:03.940Z,63.96
2023-03-05T07:52:30.450Z,63.59
2023-03-05T07:54:56.968Z,63.85
2023-03-05T07:57:23.625Z,63.69
2023-03-05T07:59:50.175Z,64.01
2023-03-05T08:02:19.058Z,64.26
2023-03-05T08:04:45.671Z,64.16
2023-03-05T08:07:14.177Z,64.34
2023-03-05T08:09:43.025Z,64.21
2023-03-05T08:12:10.347Z,64.16
2023-03-05T08:14:37.385Z,64.08
2023-03-05T08:17:04.617Z,64.23
2023-03-05T08:19:31.870Z,63.82
2023-03-05T08:21:58.434Z,63.71
2023-03-05T08:24:29.640Z,63.45
2023-03-05T08:26:57.270Z,63.67
2023-03-05T08:29:23.918Z,63.70
2023-03-05T08:31:51.559Z,63.72
2023-03-05T08:34:18.047Z,63.55
2023-03-05T08:36:44.689Z,63.80
2023-03-05T08:39:11.693Z,63.79
2023-03-05T08:41:38.539Z,63.45
2023-03-05T08:44:05.048Z,63.36
2023-03-05T08:46:31.705Z,63.61
2023-03-05T08:48:58.337Z,63.44
2023-03-05T08:51:25.939Z,63.22
2023-03-05T08:53:53.163Z,63.11
2023-03-05T08:56:19.749Z,63.03
2023-03-05T08:58:47.212Z,62.59
2023-03-05T09:01:13.983Z,62.50
2023-03-05T09:03:40.836Z,62.33
2023-03-05T09:06:08.811Z,61.78
2023-03-05T09:08:35.565Z,61.39
2023-03-05T09:11:03.090Z,61.55
2023-03-05T09:13:29.830Z,61.02
2023-03-05T09:16:00.809Z,60.65
2023-03-05T09:18:27.833Z,60.10
2023-03-05T09:20:54.473Z,59.57
2023-03-05T09:23:21.044Z,59.50
2023-03-05T09:25:47.589Z,58.90
2023-03-05T09:28:14.193Z,58.03
2023-03-05T09:30:40.790Z,57.14
2023-03-05T09:33:07.302Z,56.90
2023-03-05T09:35:37.167Z,56.43
2023-03-05T09:38:03.940Z,57.43
2023-03-05T09:40:53.757Z,58.25
2023-03-05T09:43:46.626Z,57.59
2023-03-05T09:46:24.278Z,57.89
2023-03-05T09:48:52.180Z,57.83
2023-03-05T09:51:27.943Z,58.12
2023-03-05T09:54:11.127Z,58.19
2023-03-05T09:56:40.561Z,58.62
2023-03-05T09:59:29.993Z,57.88
2023-03-05T10:01:59.614Z,57.69
2023-03-05T10:04:26.177Z,57.62
2023-03-05T10:07:01.976Z,56.57
2023-03-05T10:09:28.490Z,56.51
2023-03-05T10:11:57.030Z,55.66
2023-03-05T10:14:30.776Z,56.03
2023-03-05T10:16:57.392Z,55.67
2023-03-05T10:19:35.902Z,55.78
2023-03-05T10:22:02.342Z,54.92
2023-03-05T10:24:41.104Z,55.49
2023-03-05T10:27:25.973Z,54.63
2023-03-05T10:29:52.690Z,54.26
2023-03-05T10:32:22.352Z,54.97
2023-03-05T10:34:49.087Z,55.92
2023-03-05T10:37:24.890Z,56.06
2023-03-05T10:39:54.165Z,56.91
2023-03-05T10:42:36.101Z,56.80
2023-03-05T10:45:13.967Z,57.90
2023-03-05T10:47:40.692Z,57.21
2023-03-05T10:50:15.797Z,57.62
2023-03-05T10:52:48.562Z,58.22
2023-03-05T10:55:17.660Z,57.92
2023-03-05T10:57:44.755Z,58.26
2023-03-05T11:00:22.015Z,58.34
2023-03-05T11:02:54.041Z,58.71
2023-03-05T11:05:39.097Z,58.65
2023-03-05T11:08:23.515Z,59.02
2023-03-05T11:11:10.387Z,58.84
2023-03-05T11:13:38.776Z,58.83
2023-03-05T11:16:06.850Z,59.12
2023-03-05T11:18:37.738Z,59.39
2023-03-05T11:21:11.817Z,59.89
2023-03-05T11:23:38.588Z,60.18
2023-03-05T11:26:05.085Z,59.94
2023-03-05T11:28:34.383Z,60.02
2023-03-05T11:31:02.911Z,59.64
2023-03-05T11:33:29.841Z,59.40
2023-03-05T11:36:16.526Z,59.29
2023-03-05T11:39:18.384Z,58.20
2023-03-05T11:41:47.986Z,57.56
2023-03-05T11:44:17.652Z,57.85
2023-03-05T11:46:48.463Z,57.33
2023-03-05T11:49:18.556Z,56.79
2023-03-05T11:51:51.360Z,57.27
2023-03-05T11:54:21.309Z,57.08
2023-03-05T11:56:47.860Z,56.10
2023-03-05T11:59:14.330Z,55.86
2023-03-05T12:01:44.803Z,55.70
2023-03-05T12:04:11.583Z,55.68
2023-03-05T12:06:43.358Z,56.17
2023-03-05T12:09:13.705Z,56.27
2023-03-05T12:11:40.823Z,56.07
2023-03-05T12:14:10.399Z,56.00
2023-03-05T12:16:57.285Z,56.10
2023-03-05T12:19:23.728Z,56.29
2023-03-05T12:21:52.215Z,57.16
2023-03-05T12:24:27.749Z,56.53
2023-03-05T12:27:02.137Z,56.18
2023-03-05T12:29:28.595Z,55.66
2023-03-05T12:31:55.502Z,55.15
2023-03-05T12:34:46.154Z,54.73
2023-03-05T12:37:13.950Z,54.92
2023-03-05T12:39:40.455Z,54.66
2023-03-05T12:42:26.028Z,54.43
2023-03-05T12:45:19.239Z,54.73
2023-03-05T12:47:47.259Z,54.64
2023-03-05T12:50:29.129Z,54.81
2023-03-05T12:53:10.995Z,54.70
2023-03-05T12:55:45.471Z,53.93
2023-03-05T12:58:15.082Z,54.05
2023-03-05T13:00:49.339Z,53.55
2023-03-05T13:03:22.398Z,53.73
2023-03-05T13:05:53.380Z,53.46
2023-03-05T13:08:24.783Z,53.53
2023-03-05T13:11:02.157Z,53.89
2023-03-05T13:13:51.902Z,53.86
2023-03-05T13:16:29.271Z,52.79
2023-03-05T13:19:01.388Z,52.50
2023-03-05T13:21:31.822Z,52.20
2023-03-05T13:23:59.688Z,52.35
2023-03-05T13:26:27.883Z,51.98
2023-03-05T13:29:03.719Z,51.67
2023-03-05T13:31:30.591Z,52.01
2023-03-05T13:33:59.493Z,51.48
2023-03-05T13:36:27.141Z,51.23
2023-03-05T13:38:54.150Z,51.43
2023-03-05T13:41:20.841Z,50.75
2023-03-05T13:43:47.461Z,50.49
2023-03-05T13:46:14.224Z,50.28
2023-03-05T13:48:40.821Z,50.20
2023-03-05T13:51:09.525Z,50.55
2023-03-05T13:53:36.052Z,50.49
2023-03-05T13:56:04.400Z,50.29
2023-03-05T13:58:49.058Z,50.13
2023-03-05T14:01:21.296Z,50.01
2023-03-05T14:03:52.150Z,50.26
2023-03-05T14:06:23.012Z,50.46
2023-03-05T14:08:51.567Z,49.89
2023-03-05T14:11:18.755Z,49.80
2023-03-05T14:13:46.113Z,49.63
2023-03-05T14:16:13.945Z,49.81
2023-03-05T14:18:53.643Z,49.48
2023-03-05T14:21:20.291Z,49.57
2023-03-05T14:23:48.216Z,48.89
2023-03-05T14:26:17.860Z,49.17
2023-03-05T14:28:49.521Z,48.67
2023-03-05T14:31:17.342Z,48.58
2023-03-05T14:33:44.237Z,49.19
2023-03-05T14:36:11.213Z,48.94
2023-03-05T14:38:42.182Z,49.16
2023-03-05T14:41:36.077Z,49.17
2023-03-05T14:44:02.882Z,49.37
2023-03-05T14:46:29.391Z,49.39
2023-03-05T14:48:55.954Z,49.67
2023-03-05T14:51:23.241Z,49.69
2023-03-05T14:53:52.678Z,49.67
2023-03-05T14:56:28.514Z,49.42
2023-03-05T14:58:55.292Z,49.48
2023-03-05T15:01:21.847Z,49.89
2023-03-05T15:03:48.368Z,49.20
2023-03-05T15:06:36.295Z,49.44
2023-03-05T15:09:04.107Z,49.38
2023-03-05T15:11:30.637Z,49.25
2023-03-05T15:13:57.165Z,48.84
2023-03-05T15:16:23.751Z,49.55
2023-03-05T15:18:50.254Z,49.00
2023-03-05T15:21:16.775Z,49.18
2023-03-05T15:23:44.590Z,49.51
2023-03-05T15:26:13.354Z,49.93
2023-03-05T15:28:40.590Z,49.64
2023-03-05T15:31:07.253Z,49.85
2023-03-05T15:33:34.170Z,49.51
2023-03-05T15:36:00.734Z,49.61
2023-03-05T15:38:27.425Z,50.18
2023-03-05T15:40:53.968Z,50.35
2023-03-05T15:43:23.591Z,50.39
2023-03-05T15:45:50.080Z,50.80
2023-03-05T15:48:16.614Z,50.47
2023-03-05T15:50:43.782Z,50.82
2023-03-05T15:53:11.801Z,50.83
2023-03-05T15:55:39.254Z,50.85
2023-03-05T15:58:06.286Z,51.04
2023-03-05T16:00:34.735Z,50.72
2023-03-05T16:03:01.269Z,50.34
2023-03-05T16:05:27.866Z,50.54
2023-03-05T16:07:55.041Z,51.04
2023-03-05T16:10:24.139Z,50.79
2023-03-05T16:12:53.407Z,51.30
2023-03-05T16:15:22.361Z,51.23
2023-03-05T16:17:52.377Z,51.41
2023-03-05T16:20:19.371Z,52.14
2023-03-05T16:22:46.496Z,51.96
2023-03-05T16:25:13.094Z,52.26
2023-03-05T16:27:39.869Z,52.20
2023-03-05T16:30:07.042Z,52.13
2023-03-05T16:32:33.673Z,52.46
2023-03-05T16:35:02.606Z,52.58
2023-03-05T16:37:29.163Z,52.65
2023-03-05T16:39:57.604Z,52.81
2023-03-05T16:42:24.098Z,52.44
2023-03-05T16:44:50.587Z,52.49
2023-03-05T16:47:17.360Z,52.54
2023-03-05T16:49:43.856Z,52.72
2023-03-05T16:52:18.695Z,53.05
2023-03-05T16:54:45.491Z,53.28
2023-03-05T16:57:12.275Z,56.09
2023-03-05T16:59:38.856Z,54.14
2023-03-05T17:02:05.664Z,55.40
2023-03-05T17:04:32.500Z,53.65
2023-03-05T17:06:59.217Z,54.00
2023-03-05T17:09:25.702Z,54.01
2023-03-05T17:11:52.730Z,54.15
2023-03-05T17:14:19.240Z,54.34
2023-03-05T17:16:45.973Z,54.42
2023-03-05T17:19:12.960Z,54.89
2023-03-05T17:21:42.306Z,54.84
2023-03-05T17:24:09.923Z,54.85
2023-03-05T17:26:36.631Z,55.02
2023-03-05T17:29:04.188Z,54.71
2023-03-05T17:31:31.049Z,54.82
2023-03-05T17:33:57.620Z,54.72
2023-03-05T17:36:24.703Z,54.92
2023-03-05T17:38:52.088Z,54.39
2023-03-05T17:41:19.428Z,54.50
2023-03-05T17:43:46.161Z,54.82
2023-03-05T17:46:13.244Z,54.60
2023-03-05T17:48:39.884Z,54.76
2023-03-05T17:51:07.208Z,55.13
2023-03-05T17:53:35.130Z,54.97
2023-03-05T17:56:01.821Z,54.98
2023-03-05T17:58:28.383Z,54.66
2023-03-05T18:00:54.973Z,54.95
2023-03-05T18:03:21.597Z,55.48
2023-03-05T18:05:48.261Z,55.54
2023-03-05T18:08:14.736Z,55.88
2023-03-05T18:10:41.268Z,55.73
2023-03-05T18:13:07.866Z,55.77
2023-03-05T18:15:34.345Z,56.15
2023-03-05T18:18:00.839Z,56.38
2023-03-05T18:20:27.403Z,56.10
2023-03-05T18:22:54.018Z,56.34
2023-03-05T18:25:20.602Z,56.51
2023-03-05T18:27:47.052Z,56.58
2023-03-05T18:30:13.963Z,56.77
2023-03-05T18:32:40.527Z,56.35
2023-03-05T18:35:07.278Z,56.16
2023-03-05T18:37:33.855Z,56.36
2023-03-05T18:40:00.895Z,56.35
2023-03-05T18:42:27.402Z,56.31
2023-03-05T18:44:54.080Z,55.95
2023-03-05T18:47:20.528Z,56.29
2023-03-05T18:49:46.986Z,56.38
2023-03-05T18:52:13.531Z,56.36
2023-03-05T18:54:40.260Z,56.22
2023-03-05T18:57:06.728Z,56.86
2023-03-05T18:59:33.209Z,56.49
2023-03-05T19:01:59.685Z,56.31
2023-03-05T19:04:26.194Z,56.69
2023-03-05T19:06:52.664Z,56.68
2023-03-05T19:09:29.984Z,56.69
2023-03-05T19:11:57.450Z,56.78
2023-03-05T19:14:24.149Z,56.84
2023-03-05T19:16:50.673Z,57.27
2023-03-05T19:19:19.900Z,57.06
2023-03-05T19:21:47.492Z,57.33
2023-03-05T19:24:14.423Z,57.43
2023-03-05T19:26:41.595Z,57.36
2023-03-05T19:29:08.566Z,57.56
2023-03-05T19:31:35.896Z,58.10
2023-03-05T19:34:03.333Z,58.17
2023-03-05T19:36:34.405Z,58.38
2023-03-05T19:39:02.489Z,58.36
2023-03-05T19:41:29.461Z,58.36
2023-03-05T19:43:56.019Z,58.32
2023-03-05T19:46:22.654Z,58.50
2023-03-05T19:48:49.790Z,58.26
2023-03-05T19:51:19.244Z,58.49
2023-03-05T19:53:46.246Z,58.48
2023-03-05T19:56:13.166Z,58.94
2023-03-05T19:58:42.683Z,58.93
2023-03-05T20:01:10.124Z,58.78
2023-03-05T20:03:38.426Z,58.78
2023-03-05T20:06:05.948Z,58.96
2023-03-05T20:08:32.902Z,58.88
2023-03-05T20:10:59.725Z,58.65
2023-03-05T20:13:26.860Z,58.37
2023-03-05T20:15:53.436Z,58.22
2023-03-05T20:18:20.171Z,58.32
2023-03-05T20:20:51.222Z,58.03
2023-03-05T20:23:17.687Z,58.43
2023-03-05T20:25:44.183Z,58.14
2023-03-05T20:28:10.701Z,58.33
2023-03-05T20:30:37.914Z,58.47
2023-03-05T20:33:04.623Z,58.44
2023-03-05T20:35:31.219Z,57.99
2023-03-05T20:38:20.749Z,58.19
2023-03-05T20:40:48.392Z,57.86
2023-03-05T20:43:15.450Z,58.61
2023-03-05T20:45:42.304Z,58.46
2023-03-05T20:48:11.659Z,58.59
2023-03-05T20:50:38.269Z,58.30
2023-03-05T20:53:04.784Z,58.64
2023-03-05T20:55:32.590Z,58.70
2023-03-05T20:57:59.141Z,58.80
2023-03-05T21:00:25.763Z,58.73
2023-03-05T21:02:56.213Z,58.13
2023-03-05T21:05:24.363Z,58.07
2023-03-05T21:07:51.509Z,58.22
2023-03-05T21:10:18.796Z,58.46
2023-03-05T21:12:46.216Z,58.72
2023-03-05T21:15:13.880Z,59.10
2023-03-05T21:17:41.712Z,58.98
2023-03-05T21:20:10.480Z,59.02
2023-03-05T21:22:36.968Z,59.07
2023-03-05T21:25:16.300Z,58.78
2023-03-05T21:27:43.161Z,59.10
2023-03-05T21:30:11.746Z,59.27
2023-03-05T21:32:38.383Z,59.10
2023-03-05T21:35:05.307Z,59.59
2023-03-05T21:37:31.779Z,59.38
2023-03-05T21:39:58.249Z,59.12
2023-03-05T21:42:25.077Z,59.28
2023-03-05T21:44:51.549Z,59.45
2023-03-05T21:47:18.149Z,59.41
2023-03-05T21:49:44.625Z,59.30
2023-03-05T21:52:14.093Z,59.23
2023-03-05T21:54:43.805Z,59.19
2023-03-05T21:57:11.231Z,59.01
2023-03-05T21:59:41.739Z,58.88
2023-03-05T22:02:12.450Z,59.09
2023-03-05T22:04:39.037Z,59.58
2023-03-05T22:07:06.519Z,59.55
2023-03-05T22:09:33.448Z,59.97
2023-03-05T22:12:00.022Z,59.83
2023-03-05T22:14:26.773Z,60.02
2023-03-05T22:16:54.974Z,59.68
2023-03-05T22:19:22.110Z,59.31
2023-03-05T22:21:48.649Z,59.40
2023-03-05T22:24:15.167Z,59.50
2023-03-05T22:26:41.807Z,59.21
2023-03-05T22:29:11.504Z,59.24
2023-03-05T22:31:38.392Z,59.07
2023-03-05T22:34:04.883Z,59.26
2023-03-05T22:36:31.515Z,59.12
2023-03-05T22:38:58.005Z,58.87
2023-03-05T22:41:24.532Z,59.18
2023-03-05T22:43:51.013Z,58.93
2023-03-05T22:46:22.018Z,59.02
2023-03-05T22:48:48.969Z,59.16
2023-03-05T22:51:15.962Z,59.46
2023-03-05T22:53:44.020Z,59.91
2023-03-05T22:56:15.103Z,59.75
2023-03-05T22:58:42.018Z,60.30
2023-03-05T23:01:12.722Z,60.31
2023-03-05T23:03:39.660Z,60.44
2023-03-05T23:06:06.414Z,60.77
2023-03-05T23:08:33.146Z,60.65
2023-03-05T23:11:00.212Z,60.65
2023-03-05T23:13:26.980Z,60.73
2023-03-05T23:15:53.759Z,61.04
2023-03-05T23:18:21.592Z,61.26
2023-03-05T23:20:48.339Z,60.97
2023-03-05T23:23:14.874Z,61.42
2023-03-05T23:25:41.895Z,61.44
2023-03-05T23:28:08.580Z,61.34
2023-03-05T23:30:37.283Z,61.53
2023-03-05T23:33:23.107Z,61.50
2023-03-05T23:35:50.877Z,61.42
2023-03-05T23:38:17.602Z,61.43
2023-03-05T23:40:48.445Z,61.55
2023-03-05T23:43:16.049Z,61.49
2023-03-05T23:45:43.809Z,61.83
2023-03-05T23:48:10.921Z,61.49
2023-03-05T23:50:39.296Z,61.41
2023-03-05T23:53:06.473Z,61.35
2023-03-05T23:55:34.918Z,61.47
2023-03-05T23:58:01.593Z,61.54
